createdAt,value
2018-11-20T00:02:20.848Z,77.20
2018-11-20T00:05:09.468Z,77.00
2018-11-20T00:08:03.995Z,76.80
2018-11-20T00:10:59.088Z,76.60
2018-11-20T00:13:59.261Z,75.40
2018-11-20T00:16:33.960Z,75.70
2018-11-20T00:19:20.981Z,75.40
2018-11-20T00:22:07.776Z,74.00
2018-11-20T00:25:10.958Z,75.10
2018-11-20T00:27:58.088Z,74.80
2018-11-20T00:30:45.237Z,74.80
2018-11-20T00:33:33.960Z,74.50
2018-11-20T00:36:28.307Z,74.60
2018-11-20T00:39:19.685Z,74.80
2018-11-20T00:42:20.531Z,74.50
2018-11-20T00:45:11.541Z,74.70
2018-11-20T00:48:08.768Z,74.80
2018-11-20T00:50:57.166Z,74.50
2018-11-20T00:53:43.992Z,75.70
2018-11-20T00:57:10.643Z,75.10
2018-11-20T00:59:59.603Z,75.20
2018-11-20T01:02:57.017Z,75.40
2018-11-20T01:05:44.336Z,75.30
2018-11-20T01:08:41.786Z,75.40
2018-11-20T01:11:32.140Z,75.20
2018-11-20T01:14:23.234Z,75.90
2018-11-20T01:17:08.114Z,75.70
2018-11-20T01:19:55.354Z,75.90
2018-11-20T01:22:42.050Z,76.40
2018-11-20T01:25:28.951Z,77.60
2018-11-20T01:28:32.360Z,76.60
2018-11-20T01:31:18.443Z,77.10
2018-11-20T01:34:09.390Z,77.00
2018-11-20T01:36:56.835Z,76.90
2018-11-20T01:40:00.298Z,77.10
2018-11-20T01:42:47.349Z,76.90
2018-11-20T01:45:34.532Z,77.00
2018-11-20T01:48:35.089Z,76.90
2018-11-20T01:51:22.559Z,77.00
2018-11-20T01:54:16.615Z,77.30
2018-11-20T01:57:19.971Z,77.20
2018-11-20T02:00:07.024Z,77.10
2018-11-20T02:02:48.031Z,76.90
2018-11-20T02:05:48.201Z,77.30
2018-11-20T02:08:48.423Z,77.00
2018-11-20T02:11:36.787Z,77.30
2018-11-20T02:14:32.219Z,76.70
2018-11-20T02:17:21.403Z,76.70
2018-11-20T02:20:08.431Z,77.60
2018-11-20T02:22:55.792Z,76.90
2018-11-20T02:25:42.952Z,76.90
2018-11-20T02:28:49.555Z,76.90
2018-11-20T02:31:29.480Z,77.50
2018-11-20T02:34:27.672Z,77.20
2018-11-20T02:37:15.277Z,77.10
2018-11-20T02:40:02.327Z,77.10
2018-11-20T02:43:02.920Z,76.90
2018-11-20T02:45:48.083Z,77.00
2018-11-20T02:48:42.336Z,77.10
2018-11-20T02:51:37.118Z,77.30
2018-11-20T02:54:24.274Z,77.80
2018-11-20T02:57:11.465Z,77.90
2018-11-20T02:59:57.512Z,78.00
2018-11-20T03:02:52.020Z,78.40
2018-11-20T03:05:39.074Z,78.90
2018-11-20T03:08:27.460Z,79.10
2018-11-20T03:11:23.999Z,78.90
2018-11-20T03:14:14.782Z,79.10
2018-11-20T03:17:18.598Z,79.20
2018-11-20T03:20:06.929Z,78.80
2018-11-20T03:22:54.142Z,78.80
2018-11-20T03:26:07.994Z,79.00
2018-11-20T03:28:58.569Z,79.10
2018-11-20T03:31:44.438Z,78.90
2018-11-20T03:34:30.395Z,78.90
2018-11-20T03:37:21.505Z,78.70
2018-11-20T03:40:13.202Z,78.80
2018-11-20T03:43:01.670Z,79.40
2018-11-20T03:45:44.563Z,78.40
2018-11-20T03:48:48.004Z,78.30
2018-11-20T03:51:36.423Z,78.50
2018-11-20T03:54:28.581Z,78.20
2018-11-20T03:57:15.864Z,77.90
2018-11-20T04:00:09.161Z,78.00
2018-11-20T04:03:05.562Z,78.00
2018-11-20T04:05:52.773Z,77.80
2018-11-20T04:08:37.287Z,77.70
2018-11-20T04:11:26.019Z,77.50
2018-11-20T04:14:14.379Z,77.00
2018-11-20T04:17:01.416Z,76.90
2018-11-20T04:19:55.457Z,77.00
2018-11-20T04:22:46.736Z,76.70
2018-11-20T04:25:41.151Z,77.00
2018-11-20T04:28:28.188Z,76.90
2018-11-20T04:31:58.417Z,76.60
2018-11-20T04:34:37.833Z,76.60
2018-11-20T04:37:41.173Z,76.80
2018-11-20T04:40:28.195Z,76.90
2018-11-20T04:43:34.584Z,76.70
2018-11-20T04:46:22.958Z,76.90
2018-11-20T04:49:11.351Z,76.60
2018-11-20T04:52:09.104Z,76.80
2018-11-20T04:55:06.725Z,76.30
2018-11-20T04:58:04.048Z,76.30
2018-11-20T05:00:55.287Z,76.60
2018-11-20T05:03:53.046Z,76.00
2018-11-20T05:06:40.053Z,75.80
2018-11-20T05:09:28.454Z,75.70
2018-11-20T05:12:16.798Z,75.50
2018-11-20T05:15:14.025Z,75.70
2018-11-20T05:18:00.986Z,75.50
2018-11-20T05:20:52.341Z,75.40
2018-11-20T05:23:49.595Z,75.40
2018-11-20T05:26:36.502Z,75.30
2018-11-20T05:29:22.796Z,75.60
2018-11-20T05:32:10.040Z,74.90
2018-11-20T05:34:56.770Z,74.40
2018-11-20T05:37:45.102Z,74.20
2018-11-20T05:40:32.550Z,74.40
2018-11-20T05:43:19.483Z,74.00
2018-11-20T05:46:22.961Z,73.50
2018-11-20T05:49:20.479Z,73.40
2018-11-20T05:52:14.665Z,73.30
2018-11-20T05:55:05.785Z,73.40
2018-11-20T05:57:52.986Z,72.80
2018-11-20T06:00:53.583Z,71.40
2018-11-20T06:04:00.373Z,71.80
2018-11-20T06:07:00.517Z,71.70
2018-11-20T06:09:51.781Z,70.80
2018-11-20T06:12:38.503Z,69.80
2018-11-20T06:15:36.609Z,70.10
2018-11-20T06:18:27.777Z,70.30
2018-11-20T06:21:34.226Z,70.40
2018-11-20T06:24:23.090Z,70.10
2018-11-20T06:27:23.160Z,69.90
2018-11-20T06:30:07.812Z,69.60
2018-11-20T06:32:58.092Z,70.10
2018-11-20T06:35:52.382Z,70.20
2018-11-20T06:38:46.662Z,69.90
2018-11-20T06:41:35.029Z,69.70
2018-11-20T06:44:26.130Z,69.90
2018-11-20T06:47:26.678Z,69.80
2018-11-20T06:50:22.575Z,69.40
2018-11-20T06:53:06.133Z,69.70
2018-11-20T06:55:52.950Z,69.70
2018-11-20T06:58:39.960Z,69.70
2018-11-20T07:01:26.748Z,69.90
2018-11-20T07:04:15.090Z,71.20
2018-11-20T07:07:12.513Z,69.60
2018-11-20T07:10:03.740Z,70.00
2018-11-20T07:12:52.070Z,70.00
2018-11-20T07:15:43.239Z,70.00
2018-11-20T07:18:30.144Z,70.00
2018-11-20T07:21:27.726Z,70.00
2018-11-20T07:24:16.077Z,70.30
2018-11-20T07:27:03.396Z,70.00
2018-11-20T07:29:51.028Z,69.90
2018-11-20T07:32:51.817Z,70.00
2018-11-20T07:35:36.079Z,70.10
2018-11-20T07:38:23.896Z,70.00
2018-11-20T07:41:12.297Z,69.60
2018-11-20T07:44:03.499Z,70.10
2018-11-20T07:46:50.697Z,70.10
2018-11-20T07:49:35.953Z,70.40
2018-11-20T07:52:23.513Z,69.60
2018-11-20T07:55:15.075Z,69.90
2018-11-20T07:58:04.588Z,70.40
2018-11-20T08:00:51.811Z,69.90
2018-11-20T08:03:40.454Z,69.70
2018-11-20T08:06:31.504Z,69.80
2018-11-20T08:09:18.751Z,69.40
2018-11-20T08:12:07.734Z,69.60
2018-11-20T08:14:47.477Z,70.10
2018-11-20T08:17:36.122Z,69.60
2018-11-20T08:20:23.420Z,69.80
2018-11-20T08:23:12.419Z,69.90
2018-11-20T08:26:06.786Z,70.00
2018-11-20T08:28:53.755Z,69.50
2018-11-20T08:31:53.997Z,69.90
2018-11-20T08:35:00.595Z,69.60
2018-11-20T08:37:39.540Z,69.90
2018-11-20T08:40:29.510Z,69.50
2018-11-20T08:43:16.651Z,69.60
2018-11-20T08:46:08.031Z,68.50
2018-11-20T08:48:59.183Z,68.40
2018-11-20T08:51:53.556Z,68.40
2018-11-20T08:54:50.831Z,68.70
2018-11-20T08:57:52.371Z,68.50
2018-11-20T09:00:35.356Z,68.00
2018-11-20T09:03:22.431Z,68.00
2018-11-20T09:06:09.228Z,68.60
2018-11-20T09:09:06.586Z,67.40
2018-11-20T09:11:53.360Z,67.50
2018-11-20T09:14:40.660Z,67.40
2018-11-20T09:17:47.434Z,67.60
2018-11-20T09:20:40.204Z,67.30
2018-11-20T09:23:32.464Z,67.30
2018-11-20T09:26:19.767Z,66.20
2018-11-20T09:29:08.126Z,66.60
2018-11-20T09:31:58.203Z,66.60
2018-11-20T09:34:54.709Z,67.30
2018-11-20T09:37:58.411Z,66.40
2018-11-20T09:41:18.699Z,66.00
2018-11-20T09:44:45.703Z,66.60
2018-11-20T09:47:32.634Z,66.20
2018-11-20T09:50:30.081Z,66.30
2018-11-20T09:53:17.514Z,66.70
2018-11-20T09:56:19.154Z,66.20
2018-11-20T09:59:05.466Z,66.10
2018-11-20T10:01:59.522Z,67.30
2018-11-20T10:05:02.888Z,66.40
2018-11-20T10:07:46.151Z,67.20
2018-11-20T10:10:32.947Z,66.70
2018-11-20T10:13:12.381Z,66.20
2018-11-20T10:16:09.816Z,66.70
2018-11-20T10:19:04.131Z,68.70
2018-11-20T10:21:55.575Z,65.90
2018-11-20T10:24:52.686Z,65.50
2018-11-20T10:27:46.782Z,65.80
2018-11-20T10:30:41.253Z,66.20
2018-11-20T10:33:35.745Z,66.60
2018-11-20T10:36:30.268Z,66.80
2018-11-20T10:39:21.750Z,67.00
2018-11-20T10:42:04.803Z,66.70
2018-11-20T10:44:43.507Z,67.50
2018-11-20T10:47:30.534Z,67.80
2018-11-20T10:50:19.155Z,67.30
2018-11-20T10:53:06.134Z,67.20
2018-11-20T10:55:42.641Z,67.90
2018-11-20T10:58:29.625Z,67.10
2018-11-20T11:01:16.852Z,67.40
2018-11-20T11:04:23.447Z,67.80
2018-11-20T11:07:01.892Z,67.40
2018-11-20T11:09:43.461Z,67.50
2018-11-20T11:12:31.878Z,67.60
2018-11-20T11:15:25.788Z,68.60
2018-11-20T11:18:26.914Z,67.80
2018-11-20T11:21:13.907Z,68.00
2018-11-20T11:24:11.521Z,67.30
2018-11-20T11:26:54.832Z,67.50
2018-11-20T11:29:49.402Z,67.80
2018-11-20T11:32:37.744Z,67.20
2018-11-20T11:35:25.489Z,67.20
2018-11-20T11:38:14.162Z,68.50
2018-11-20T11:40:58.490Z,67.20
2018-11-20T11:43:56.267Z,67.00
2018-11-20T11:46:44.613Z,66.70
2018-11-20T11:49:45.611Z,66.60
2018-11-20T11:52:33.998Z,66.90
2018-11-20T11:55:40.540Z,66.80
2018-11-20T11:58:27.591Z,67.00
2018-11-20T12:01:19.210Z,66.90
2018-11-20T12:06:48.037Z,65.70
2018-11-20T12:09:39.259Z,65.90
2018-11-20T12:12:26.783Z,65.40
2018-11-20T12:15:24.364Z,65.30
2018-11-20T12:18:11.301Z,65.20
2018-11-20T12:21:05.738Z,65.70
2018-11-20T12:24:00.042Z,65.20
2018-11-20T12:26:54.635Z,66.20
2018-11-20T12:30:01.226Z,65.40
2018-11-20T12:32:53.821Z,65.40
2018-11-20T12:35:40.909Z,65.30
2018-11-20T12:38:30.398Z,66.10
2018-11-20T12:41:31.106Z,66.50
2018-11-20T12:44:25.836Z,66.10
2018-11-20T12:47:29.408Z,65.70
2018-11-20T12:50:53.188Z,65.30
2018-11-20T12:53:43.717Z,65.40
2018-11-20T12:56:34.089Z,65.00
2018-11-20T12:59:20.927Z,64.20
2018-11-20T13:02:08.837Z,64.20
2018-11-20T13:05:05.226Z,64.00
2018-11-20T13:07:58.535Z,63.60
2018-11-20T13:10:44.755Z,63.80
2018-11-20T13:13:30.693Z,63.30
2018-11-20T13:16:18.245Z,63.00
2018-11-20T13:18:59.314Z,62.50
2018-11-20T13:21:44.717Z,62.50
2018-11-20T13:24:32.707Z,62.10
2018-11-20T13:27:35.260Z,62.30
2018-11-20T13:30:21.477Z,62.60
2018-11-20T13:32:57.950Z,62.60
2018-11-20T13:35:41.946Z,63.30
2018-11-20T13:38:29.362Z,63.70
2018-11-20T13:41:53.041Z,63.50
2018-11-20T13:44:36.872Z,64.50
2018-11-20T13:47:27.375Z,64.20
2018-11-20T13:50:08.745Z,64.90
2018-11-20T13:52:54.878Z,65.10
2018-11-20T13:55:39.726Z,64.90
2018-11-20T13:58:42.430Z,65.20
2018-11-20T14:01:30.317Z,65.30
2018-11-20T14:04:18.287Z,65.00
2018-11-20T14:07:12.028Z,65.10
2018-11-20T14:10:05.835Z,64.90
2018-11-20T14:12:52.586Z,64.20
2018-11-20T14:15:39.069Z,64.60
2018-11-20T14:18:32.764Z,64.80
2018-11-20T14:21:26.640Z,64.30
2018-11-20T14:24:26.079Z,64.70
2018-11-20T14:27:17.387Z,65.20
2018-11-20T14:30:03.604Z,65.00
2018-11-20T14:32:43.479Z,65.30
2018-11-20T14:35:34.185Z,65.00
2018-11-20T14:38:20.416Z,64.40
2018-11-20T14:41:08.069Z,65.00
2018-11-20T14:43:58.291Z,65.20
2018-11-20T14:46:44.629Z,64.70
2018-11-20T14:49:27.963Z,64.70
2018-11-20T14:52:14.888Z,64.70
2018-11-20T14:55:01.716Z,63.80
2018-11-20T14:57:47.915Z,64.30
2018-11-20T15:00:47.493Z,64.60
2018-11-20T15:03:33.266Z,64.30
2018-11-20T15:06:38.917Z,64.70
2018-11-20T15:09:33.908Z,65.10
2018-11-20T15:12:20.816Z,65.40
2018-11-20T15:15:07.183Z,65.90
2018-11-20T15:18:09.928Z,65.90
2018-11-20T15:21:00.450Z,66.20
2018-11-20T15:23:41.461Z,66.80
2018-11-20T15:26:35.140Z,66.10
2018-11-20T15:29:25.401Z,66.50
2018-11-20T15:32:15.684Z,66.50
2018-11-20T15:35:03.218Z,67.00
2018-11-20T15:37:56.512Z,66.90
2018-11-20T15:40:47.066Z,66.90
2018-11-20T15:43:22.668Z,66.70
2018-11-20T15:46:09.015Z,67.50
2018-11-20T15:48:55.384Z,66.90
2018-11-20T15:51:45.653Z,67.70
2018-11-20T15:54:28.080Z,67.10
2018-11-20T15:57:14.252Z,67.00
2018-11-20T16:00:13.917Z,67.30
2018-11-20T16:03:23.018Z,67.60
2018-11-20T16:05:56.771Z,67.60
2018-11-20T16:08:47.066Z,67.80
2018-11-20T16:11:27.336Z,67.90
2018-11-20T16:14:24.164Z,67.80
2018-11-20T16:17:27.061Z,68.60
2018-11-20T16:20:23.693Z,69.00
2018-11-20T16:23:11.223Z,70.00
2018-11-20T16:26:17.455Z,70.00
2018-11-20T16:29:04.059Z,70.80
2018-11-20T16:32:03.841Z,72.00
2018-11-20T16:34:50.067Z,71.60
2018-11-20T16:37:46.719Z,71.90
2018-11-20T16:40:33.320Z,71.50
2018-11-20T16:43:24.761Z,71.40
2018-11-20T16:46:10.918Z,72.40
2018-11-20T16:48:58.484Z,72.40
2018-11-20T16:51:58.018Z,71.80
2018-11-20T16:54:54.594Z,72.30
2018-11-20T16:57:45.319Z,72.60
2018-11-20T17:00:32.920Z,71.20
2018-11-20T17:03:35.535Z,72.30
2018-11-20T17:06:21.723Z,72.90
2018-11-20T17:09:17.904Z,73.80
2018-11-20T17:12:05.090Z,73.50
2018-11-20T17:14:57.456Z,73.90
2018-11-20T17:17:43.671Z,74.60
2018-11-20T17:20:35.968Z,74.80
2018-11-20T17:23:35.841Z,75.40
2018-11-20T17:26:29.127Z,76.00
2018-11-20T17:29:15.525Z,75.90
2018-11-20T17:32:15.543Z,75.90
2018-11-20T17:35:01.404Z,76.20
2018-11-20T17:37:55.667Z,76.30
2018-11-20T17:40:43.167Z,77.20
2018-11-20T17:43:29.672Z,77.20
2018-11-20T17:46:17.268Z,77.10
2018-11-20T17:49:03.296Z,77.20
2018-11-20T17:51:49.838Z,77.90
2018-11-20T17:54:37.362Z,78.90
2018-11-20T17:57:23.943Z,78.50
2018-11-20T18:00:14.869Z,78.40
2018-11-20T18:03:05.763Z,78.00
2018-11-20T18:05:53.216Z,78.30
2018-11-20T18:08:39.931Z,78.30
2018-11-20T18:11:26.040Z,78.20
2018-11-20T18:14:07.929Z,77.60
2018-11-20T18:17:04.267Z,77.70
2018-11-20T18:19:47.107Z,77.20
2018-11-20T18:22:37.631Z,77.30
2018-11-20T18:25:25.786Z,77.50
2018-11-20T18:28:22.619Z,77.40
2018-11-20T18:31:09.022Z,77.50
2018-11-20T18:34:05.613Z,77.30
2018-11-20T18:36:53.018Z,77.30
2018-11-20T18:39:42.191Z,77.00
2018-11-20T18:42:48.133Z,77.20
2018-11-20T18:45:34.665Z,77.20
2018-11-20T18:48:25.549Z,77.10
2018-11-20T18:51:17.915Z,77.10
2018-11-20T18:54:04.521Z,77.00
2018-11-20T18:56:50.551Z,77.10
2018-11-20T18:59:56.982Z,77.20
2018-11-20T19:02:53.145Z,77.40
2018-11-20T19:05:39.560Z,77.30
2018-11-20T19:08:32.945Z,77.10
2018-11-20T19:11:19.382Z,77.40
2018-11-20T19:14:19.382Z,77.70
2018-11-20T19:17:25.060Z,77.30
2018-11-20T19:20:10.074Z,77.80
2018-11-20T19:22:56.002Z,77.10
2018-11-20T19:25:49.558Z,77.00
2018-11-20T19:28:38.232Z,77.20
2018-11-20T19:31:41.187Z,77.10
2018-11-20T19:34:20.736Z,76.70
2018-11-20T19:37:07.756Z,76.40
2018-11-20T19:39:58.741Z,76.70
2018-11-20T19:42:46.280Z,76.40
2018-11-20T19:45:27.861Z,76.20
2018-11-20T19:48:14.413Z,76.20
2018-11-20T19:51:01.961Z,76.20
2018-11-20T19:53:48.119Z,76.10
2018-11-20T19:56:34.481Z,76.50
2018-11-20T19:59:40.233Z,75.80
2018-11-20T20:02:42.935Z,76.20
2018-11-20T20:05:29.373Z,76.00
2018-11-20T20:08:15.511Z,76.50
2018-11-20T20:11:12.189Z,76.10
2018-11-20T20:13:58.834Z,75.90
2018-11-20T20:16:50.591Z,76.10
2018-11-20T20:19:44.091Z,76.20
2018-11-20T20:22:31.993Z,75.70
2018-11-20T20:25:18.358Z,75.90
2018-11-20T20:28:04.783Z,75.30
2018-11-20T20:30:51.232Z,75.60
2018-11-20T20:33:39.143Z,75.70
2018-11-20T20:36:32.641Z,75.60
2018-11-20T20:39:19.253Z,76.40
2018-11-20T20:42:19.241Z,76.40
2018-11-20T20:45:05.524Z,76.30
2018-11-20T20:47:45.942Z,75.90
2018-11-20T20:50:33.494Z,75.50
2018-11-20T20:53:20.995Z,75.20
2018-11-20T20:56:05.366Z,75.50
2018-11-20T20:59:01.854Z,75.60
2018-11-20T21:01:48.406Z,75.40
2018-11-20T21:04:30.600Z,75.60
2018-11-20T21:07:36.218Z,75.30
2018-11-20T21:10:24.126Z,75.60
2018-11-20T21:13:14.707Z,75.30
2018-11-20T21:16:01.290Z,75.70
2018-11-20T21:18:47.528Z,75.90
2018-11-20T21:21:27.943Z,76.20
2018-11-20T21:24:18.986Z,76.10
2018-11-20T21:27:06.059Z,76.10
2018-11-20T21:30:02.924Z,76.30
2018-11-20T21:32:50.509Z,76.00
2018-11-20T21:35:36.752Z,76.30
2018-11-20T21:38:26.810Z,76.70
2018-11-20T21:41:33.063Z,77.90
2018-11-20T21:44:19.244Z,78.00
2018-11-20T21:46:58.645Z,78.90
2018-11-20T21:49:45.041Z,78.60
2018-11-20T21:52:41.490Z,79.50
2018-11-20T21:55:41.176Z,80.10
2018-11-20T21:58:24.056Z,80.30
2018-11-20T22:01:11.394Z,80.10
2018-11-20T22:03:57.612Z,80.30
2018-11-20T22:06:47.944Z,80.30
2018-11-20T22:09:38.120Z,80.40
2018-11-20T22:12:24.382Z,80.30
2018-11-20T22:15:17.676Z,80.80
2018-11-20T22:18:11.306Z,80.30
2018-11-20T22:20:57.721Z,80.70
2018-11-20T22:23:43.886Z,80.50
2018-11-20T22:26:31.410Z,80.80
2018-11-20T22:29:18.914Z,80.30
2018-11-20T22:32:15.230Z,80.30
2018-11-20T22:35:06.790Z,80.80
2018-11-20T22:37:54.325Z,80.50
2018-11-20T22:40:47.716Z,80.40
2018-11-20T22:43:53.653Z,80.70
2018-11-20T22:46:43.764Z,81.40
2018-11-20T22:49:31.293Z,80.80
2018-11-20T22:52:21.377Z,81.20
2018-11-20T22:55:07.674Z,81.20
2018-11-20T22:57:53.673Z,80.90
2018-11-20T23:00:41.295Z,81.00
2018-11-20T23:03:44.207Z,81.10
2018-11-20T23:06:36.535Z,80.60
2018-11-20T23:09:06.554Z,80.70
2018-11-20T23:11:34.927Z,80.80
2018-11-20T23:14:03.271Z,80.70
2018-11-20T23:16:31.651Z,80.70
2018-11-20T23:19:00.399Z,80.40
2018-11-20T23:21:28.849Z,80.80
2018-11-20T23:23:57.215Z,81.30
2018-11-20T23:26:25.990Z,81.40
2018-11-20T23:28:54.343Z,81.20
2018-11-20T23:31:22.742Z,80.80
2018-11-20T23:33:51.187Z,81.00
2018-11-20T23:36:19.569Z,81.20
2018-11-20T23:38:48.221Z,80.70
2018-11-20T23:41:16.679Z,81.00
2018-11-20T23:43:45.104Z,80.60
2018-11-20T23:46:13.529Z,80.30
2018-11-20T23:48:42.324Z,80.70
2018-11-20T23:51:10.719Z,80.90
2018-11-20T23:53:39.090Z,80.80
2018-11-20T23:56:08.166Z,81.00
2018-11-20T23:58:36.516Z,81.00
